Список аэропортов
Фактическая погода:

25 июня, 01:00
Температура: +14°C (+13.3*)
Ветер: сев.-западный 3 м/с
Давление: *760 мм
Без существ. явл.
Время (МСК)Темп. СВетерВлажностьДавлениеОблачностьОсадки
21:00+17З, 5 м/с73%1011 гПаоблачносл. дождь
22:00+16З, 4 м/с75%1012 гПаоблачнодождь
23:00+15З, 3 м/с82%1012 гПаоблачнодождь
25 июня
00:00+15З, 2 м/с84%1013 гПаоблачнодождь
01:00+14З, 4 м/с83%1013 гПаоблачнодождь
02:00+14З, 3 м/с83%1014 гПаоблачносл. дождь
03:00+14З, 4 м/с83%1014 гПаоблачнодождь
04:00+13З, 4 м/с82%1015 гПаоблачнодождь
05:00+13З, 5 м/с81%1015 гПаоблачнодождь
06:00+12З, 4 м/с80%1015 гПаоблачно
07:00+13З, 4 м/с78%1016 гПас прояснениями
08:00+14З, 5 м/с69%1016 гПас прояснениями
09:00+16З, 5 м/с62%1016 гПамалооблачно
10:00+17З, 5 м/с58%1016 гПамалооблачно
11:00+18З, 4 м/с55%1017 гПаоблачно
12:00+19З, 4 м/с52%1017 гПас прояснениями
13:00+20З, 3 м/с50%1017 гПаясно
14:00+21З, 3 м/с48%1017 гПамалооблачно
15:00+22З, 3 м/с47%1017 гПаоблачно
16:00+22З, 3 м/с46%1018 гПаоблачно
17:00+22З, 2 м/с45%1018 гПамалооблачно
18:00+22ЮЗ, 2 м/с45%1018 гПаоблачно
19:00+21ЮЗ, 2 м/с47%1018 гПаоблачно
20:00+21ЮЗ, 1 м/с47%1018 гПаоблачно
21:00+19Ю, 1 м/с58%1019 гПаоблачно
22:00+17Ю, 2 м/с68%1019 гПамалооблачно
23:00+16ЮЗ, 2 м/с75%1019 гПамалооблачно
26 июня
00:00+14ЮЗ, 2 м/с81%1020 гПаясно
01:00+13З, 1 м/с86%1020 гПаясно
02:00+12З, 2 м/с89%1021 гПаясно
03:00+12З, 2 м/с88%1021 гПаясно
04:00+11СЗ, 1 м/с92%1022 гПас прояснениями
05:00+12З, 1 м/с92%1022 гПамалооблачно
06:00+13З, 1 м/с88%1022 гПаясно
07:00+16Штиль 79%1022 гПас прояснениями
08:00+20СЗ, 1 м/с55%1022 гПамалооблачно
09:00+22СЗ, 2 м/с46%1022 гПас прояснениями
10:00+23С, 2 м/с42%1023 гПас прояснениями
11:00+23С, 1 м/с40%1022 гПаясно
12:00+24С, 1 м/с39%1022 гПаясно
13:00+25СЗ, 2 м/с37%1023 гПамалооблачно
14:00+25СЗ, 2 м/с36%1023 гПас прояснениями
15:00+26С, 2 м/с35%1022 гПаоблачно
16:00+26С, 2 м/с34%1022 гПас прояснениями
17:00+26С, 3 м/с34%1022 гПас прояснениями
18:00+25С, 3 м/с35%1022 гПаоблачно
19:00+24С, 3 м/с35%1022 гПаясно
20:00+23С, 2 м/с45%1022 гПамалооблачно
21:00+20СЗ, 2 м/с61%1023 гПас прояснениями